createdAt,value
2023-05-04T00:00:40.030Z,5.4
2023-05-04T00:01:41.963Z,5.4
2023-05-04T00:02:45.122Z,5.4
2023-05-04T00:03:40.162Z,5.4
2023-05-04T00:04:40.096Z,5.3
2023-05-04T00:05:40.026Z,5.3
2023-05-04T00:06:40.030Z,5.3
2023-05-04T00:07:40.030Z,5.3
2023-05-04T00:08:40.039Z,5.2
2023-05-04T00:09:40.067Z,5.2
2023-05-04T00:10:40.035Z,5.2
2023-05-04T00:11:40.043Z,5.2
2023-05-04T00:12:40.095Z,5.2
2023-05-04T00:13:40.035Z,5.2
2023-05-04T00:14:40.072Z,5.2
2023-05-04T00:15:40.037Z,5.2
2023-05-04T00:16:40.192Z,5.2
2023-05-04T00:17:40.086Z,5.2
2023-05-04T00:18:40.025Z,5.2
2023-05-04T00:19:40.067Z,5.2
2023-05-04T00:20:40.025Z,5.2
2023-05-04T00:21:40.037Z,5.2
2023-05-04T00:22:42.061Z,5.2
2023-05-04T00:23:45.185Z,5.2
2023-05-04T00:24:40.050Z,5.2
2023-05-04T00:25:40.021Z,5.2
2023-05-04T00:26:40.042Z,5.2
2023-05-04T00:27:40.043Z,5.2
2023-05-04T00:28:40.032Z,5.2
2023-05-04T00:29:40.032Z,5.2
2023-05-04T00:30:40.026Z,5.2
2023-05-04T00:31:40.071Z,5.2
2023-05-04T00:32:40.092Z,5.2
2023-05-04T00:33:40.035Z,5.2
2023-05-04T00:34:40.028Z,5.2
2023-05-04T00:35:40.031Z,5.2
2023-05-04T00:36:40.029Z,5.2
2023-05-04T00:37:40.071Z,5.2
2023-05-04T00:38:40.023Z,5.2
2023-05-04T00:39:40.038Z,5.2
2023-05-04T00:40:40.026Z,5.2
2023-05-04T00:41:40.076Z,5.2
2023-05-04T00:42:40.055Z,5.2
2023-05-04T00:43:42.169Z,5.2
2023-05-04T00:44:45.343Z,5.2
2023-05-04T00:45:40.037Z,5.2
2023-05-04T00:46:40.069Z,5.2
2023-05-04T00:47:40.071Z,5.2
2023-05-04T00:48:40.038Z,5.2
2023-05-04T00:49:40.037Z,5.2
2023-05-04T00:50:40.175Z,5.2
2023-05-04T00:51:40.027Z,5.2
2023-05-04T00:52:40.053Z,5.2
2023-05-04T00:53:40.039Z,5.2
2023-05-04T00:54:40.026Z,5.2
2023-05-04T00:55:40.037Z,5.2
2023-05-04T00:56:40.036Z,5.2
2023-05-04T00:57:40.064Z,5.2
2023-05-04T00:58:40.066Z,5.2
2023-05-04T00:59:40.041Z,5.2
2023-05-04T01:00:40.089Z,5.2
2023-05-04T01:01:40.034Z,5.2
2023-05-04T01:02:40.079Z,5.2
2023-05-04T01:03:40.036Z,5.1
2023-05-04T01:04:42.253Z,5.1
2023-05-04T01:05:45.336Z,5.1
2023-05-04T01:06:40.033Z,5.1
2023-05-04T01:07:40.034Z,5.1
2023-05-04T01:08:40.080Z,5.1
2023-05-04T01:09:40.033Z,5
2023-05-04T01:10:40.040Z,5
2023-05-04T01:11:40.100Z,5
2023-05-04T01:12:40.060Z,5
2023-05-04T01:13:40.053Z,5
2023-05-04T01:14:40.065Z,4.9
2023-05-04T01:15:40.033Z,4.9
2023-05-04T01:16:40.051Z,4.9
2023-05-04T01:17:40.055Z,4.9
2023-05-04T01:18:40.054Z,4.9
2023-05-04T01:19:40.026Z,4.8
2023-05-04T01:20:40.035Z,4.8
2023-05-04T01:21:40.205Z,4.8
2023-05-04T01:22:40.029Z,4.8
2023-05-04T01:23:40.051Z,4.8
2023-05-04T01:24:40.310Z,4.8
2023-05-04T01:25:42.357Z,4.8
2023-05-04T01:26:45.324Z,4.8
2023-05-04T01:27:40.035Z,4.8
2023-05-04T01:28:40.062Z,4.8
2023-05-04T01:29:40.034Z,4.8
2023-05-04T01:30:40.053Z,4.8
2023-05-04T01:31:40.040Z,4.8
2023-05-04T01:32:40.188Z,4.8
2023-05-04T01:33:40.058Z,4.7
2023-05-04T01:34:40.040Z,4.7
2023-05-04T01:35:40.033Z,4.7
2023-05-04T01:36:40.038Z,4.7
2023-05-04T01:37:40.044Z,4.7
2023-05-04T01:38:40.035Z,4.7
2023-05-04T01:39:40.026Z,4.7
2023-05-04T01:40:40.031Z,4.7
2023-05-04T01:41:40.050Z,4.6
2023-05-04T01:42:40.038Z,4.6
2023-05-04T01:43:40.030Z,4.6
2023-05-04T01:44:40.026Z,4.6
2023-05-04T01:45:40.032Z,4.6
2023-05-04T01:46:42.496Z,4.6
2023-05-04T01:47:45.479Z,4.6
2023-05-04T01:48:40.026Z,4.6
2023-05-04T01:49:40.030Z,4.5
2023-05-04T01:50:40.052Z,4.5
2023-05-04T01:51:40.026Z,4.5
2023-05-04T01:52:40.026Z,4.5
2023-05-04T01:53:40.027Z,4.5
2023-05-04T01:54:40.021Z,4.5
2023-05-04T01:55:40.064Z,4.4
2023-05-04T01:56:40.029Z,4.4
2023-05-04T01:57:40.033Z,4.4
2023-05-04T01:58:40.036Z,4.4
2023-05-04T01:59:40.031Z,4.4
2023-05-04T02:00:40.043Z,4.4
2023-05-04T02:01:40.082Z,4.3
2023-05-04T02:02:40.107Z,4.3
2023-05-04T02:03:40.263Z,4.3
2023-05-04T02:04:40.021Z,4.2
2023-05-04T02:05:40.056Z,4.2
2023-05-04T02:06:40.031Z,4.1
2023-05-04T02:07:42.586Z,4.1
2023-05-04T02:08:45.516Z,4.1
2023-05-04T02:09:40.024Z,4
2023-05-04T02:10:40.075Z,4
2023-05-04T02:11:40.025Z,4
2023-05-04T02:12:40.072Z,3.9
2023-05-04T02:13:40.043Z,3.9
2023-05-04T02:14:40.044Z,3.9
2023-05-04T02:15:40.052Z,3.9
2023-05-04T02:16:40.118Z,3.9
2023-05-04T02:17:40.066Z,3.9
2023-05-04T02:18:40.035Z,3.9
2023-05-04T02:19:40.045Z,3.8
2023-05-04T02:20:40.027Z,3.8
2023-05-04T02:21:40.031Z,3.8
2023-05-04T02:22:40.026Z,3.8
2023-05-04T02:23:40.027Z,3.7
2023-05-04T02:24:40.203Z,3.7
2023-05-04T02:25:40.031Z,3.7
2023-05-04T02:26:40.030Z,3.7
2023-05-04T02:27:40.036Z,3.7
2023-05-04T02:28:40.028Z,3.7
2023-05-04T02:29:42.896Z,3.7
2023-05-04T02:30:45.770Z,3.7
2023-05-04T02:31:40.095Z,3.7
2023-05-04T02:32:40.069Z,3.6
2023-05-04T02:33:40.020Z,3.6
2023-05-04T02:34:40.023Z,3.6
2023-05-04T02:35:40.053Z,3.6
2023-05-04T02:36:40.047Z,3.6
2023-05-04T02:37:40.030Z,3.6
2023-05-04T02:38:40.044Z,3.6
2023-05-04T02:39:40.035Z,3.6
2023-05-04T02:40:40.051Z,3.6
2023-05-04T02:41:40.032Z,3.6
2023-05-04T02:42:40.031Z,3.6
2023-05-04T02:43:40.032Z,3.6
2023-05-04T02:44:40.060Z,3.6
2023-05-04T02:45:40.055Z,3.6
2023-05-04T02:46:40.026Z,3.5
2023-05-04T02:47:40.088Z,3.5
2023-05-04T02:48:40.029Z,3.5
2023-05-04T02:49:40.275Z,3.5
2023-05-04T02:50:42.434Z,3.5
2023-05-04T02:51:45.868Z,3.5
2023-05-04T02:52:40.031Z,3.4
2023-05-04T02:53:40.035Z,3.4
2023-05-04T02:54:40.031Z,3.4
2023-05-04T02:55:40.025Z,3.4
2023-05-04T02:56:40.030Z,3.4
2023-05-04T02:57:40.043Z,3.4
2023-05-04T02:58:40.031Z,3.4
2023-05-04T02:59:40.019Z,3.4
2023-05-04T03:00:40.040Z,3.4
2023-05-04T03:01:40.114Z,3.4
2023-05-04T03:02:40.064Z,3.4
2023-05-04T03:03:40.034Z,3.3
2023-05-04T03:04:40.045Z,3.3
2023-05-04T03:05:40.048Z,3.3
2023-05-04T03:06:40.032Z,3.3
2023-05-04T03:07:40.035Z,3.3
2023-05-04T03:08:40.026Z,3.3
2023-05-04T03:09:40.024Z,3.3
2023-05-04T03:10:40.078Z,3.3
2023-05-04T03:11:42.565Z,3.3
2023-05-04T03:12:45.999Z,3.3
2023-05-04T03:13:40.035Z,3.3
2023-05-04T03:14:40.049Z,3.3
2023-05-04T03:15:40.030Z,3.2
2023-05-04T03:16:40.075Z,3.2
2023-05-04T03:17:40.079Z,3.2
2023-05-04T03:18:40.035Z,3.2
2023-05-04T03:19:40.031Z,3.2
2023-05-04T03:20:40.030Z,3.2
2023-05-04T03:21:40.038Z,3.2
2023-05-04T03:22:40.025Z,3.2
2023-05-04T03:23:40.024Z,3.2
2023-05-04T03:24:40.100Z,3.2
2023-05-04T03:25:40.032Z,3.2
2023-05-04T03:26:40.041Z,3.2
2023-05-04T03:27:40.029Z,3.2
2023-05-04T03:28:40.040Z,3.2
2023-05-04T03:29:40.029Z,3.2
2023-05-04T03:30:40.034Z,3.2
2023-05-04T03:31:40.284Z,3.2
2023-05-04T03:32:42.715Z,3.2
2023-05-04T03:33:46.194Z,3.2
2023-05-04T03:34:40.028Z,3.2
2023-05-04T03:35:40.030Z,3.2
2023-05-04T03:36:40.027Z,3.2
2023-05-04T03:37:40.034Z,3.1
2023-05-04T03:38:40.041Z,3.1
2023-05-04T03:39:40.030Z,3.1
2023-05-04T03:40:40.065Z,3.1
2023-05-04T03:41:40.031Z,3.1
2023-05-04T03:42:40.030Z,3.1
2023-05-04T03:43:40.030Z,3.1
2023-05-04T03:44:40.033Z,3.1
2023-05-04T03:45:40.065Z,3.1
2023-05-04T03:46:40.035Z,3
2023-05-04T03:47:40.081Z,3
2023-05-04T03:48:40.029Z,3
2023-05-04T03:49:40.024Z,3
2023-05-04T03:50:40.034Z,3
2023-05-04T03:51:40.045Z,2.9
2023-05-04T03:52:40.366Z,2.9
2023-05-04T03:53:44.617Z,2.9
2023-05-04T03:54:45.698Z,2.9
2023-05-04T03:55:40.038Z,2.9
2023-05-04T03:56:40.044Z,2.9
2023-05-04T03:57:40.027Z,2.9
2023-05-04T03:58:40.045Z,2.9
2023-05-04T03:59:40.044Z,2.9
2023-05-04T04:00:40.031Z,2.9
2023-05-04T04:01:40.036Z,2.9
2023-05-04T04:02:40.112Z,2.9
2023-05-04T04:03:40.069Z,2.9
2023-05-04T04:04:40.128Z,2.9
2023-05-04T04:05:40.031Z,2.9
2023-05-04T04:06:41.981Z,2.9
2023-05-04T04:07:40.151Z,3
2023-05-04T04:08:40.054Z,3
2023-05-04T04:09:40.034Z,3
2023-05-04T04:10:40.049Z,3
2023-05-04T04:11:40.032Z,3
2023-05-04T04:12:40.114Z,3
2023-05-04T04:13:40.460Z,3
2023-05-04T04:14:42.849Z,3
2023-05-04T04:15:46.385Z,3.1
2023-05-04T04:16:40.065Z,3.1
2023-05-04T04:17:40.073Z,3.1
2023-05-04T04:18:40.024Z,3.1
2023-05-04T04:19:40.044Z,3.1
2023-05-04T04:20:40.035Z,3.2
2023-05-04T04:21:40.032Z,3.2
2023-05-04T04:22:40.036Z,3.2
2023-05-04T04:23:40.039Z,3.2
2023-05-04T04:24:40.239Z,3.2
2023-05-04T04:25:40.030Z,3.2
2023-05-04T04:26:40.058Z,3.2
2023-05-04T04:27:40.042Z,3.3
2023-05-04T04:28:40.030Z,3.3
2023-05-04T04:29:40.060Z,3.3
2023-05-04T04:30:40.039Z,3.4
2023-05-04T04:31:40.165Z,3.4
2023-05-04T04:32:40.052Z,3.5
2023-05-04T04:33:40.030Z,3.5
2023-05-04T04:34:40.540Z,3.6
2023-05-04T04:35:42.971Z,3.6
2023-05-04T04:36:46.505Z,3.6
2023-05-04T04:37:40.026Z,3.6
2023-05-04T04:38:40.035Z,3.6
2023-05-04T04:39:40.064Z,3.7
2023-05-04T04:40:40.040Z,3.7
2023-05-04T04:41:40.036Z,3.8
2023-05-04T04:42:40.029Z,3.8
2023-05-04T04:43:40.026Z,3.9
2023-05-04T04:44:40.055Z,3.9
2023-05-04T04:45:40.025Z,3.9
2023-05-04T04:46:40.043Z,3.9
2023-05-04T04:47:40.284Z,4
2023-05-04T04:48:40.041Z,4
2023-05-04T04:49:40.033Z,4.1
2023-05-04T04:50:40.046Z,4.1
2023-05-04T04:51:40.035Z,4.2
2023-05-04T04:52:40.039Z,4.2
2023-05-04T04:53:40.036Z,4.3
2023-05-04T04:54:40.040Z,4.3
2023-05-04T04:55:40.682Z,4.3
2023-05-04T04:56:43.083Z,4.4
2023-05-04T04:57:46.584Z,4.4
2023-05-04T04:58:40.040Z,4.4
2023-05-04T04:59:40.036Z,4.4
2023-05-04T05:00:40.078Z,4.4
2023-05-04T05:01:40.031Z,4.5
2023-05-04T05:02:40.060Z,4.5
2023-05-04T05:03:40.040Z,4.5
2023-05-04T05:04:40.043Z,4.5
2023-05-04T05:05:40.052Z,4.6
2023-05-04T05:06:40.044Z,4.6
2023-05-04T05:07:40.045Z,4.6
2023-05-04T05:08:40.043Z,4.6
2023-05-04T05:09:40.029Z,4.7
2023-05-04T05:11:40.025Z,4.7
2023-05-04T05:12:40.067Z,4.7
2023-05-04T05:13:40.031Z,4.8
2023-05-04T05:14:40.024Z,4.8
2023-05-04T05:15:40.048Z,4.8
2023-05-04T05:16:40.711Z,4.8
2023-05-04T05:17:43.300Z,4.8
2023-05-04T05:18:46.094Z,4.8
2023-05-04T05:19:42.164Z,4.8
2023-05-04T05:20:40.061Z,4.8
2023-05-04T05:21:40.040Z,4.9
2023-05-04T05:22:40.034Z,4.9
2023-05-04T05:23:40.040Z,4.9
2023-05-04T05:24:40.038Z,5
2023-05-04T05:25:40.050Z,5
2023-05-04T05:26:40.043Z,5
2023-05-04T05:27:40.028Z,5
2023-05-04T05:28:40.033Z,5.1
2023-05-04T05:29:40.051Z,5.1
2023-05-04T05:30:40.087Z,5.1
2023-05-04T05:31:40.097Z,5.1
2023-05-04T05:32:40.088Z,5.1
2023-05-04T05:33:40.036Z,5.2
2023-05-04T05:34:40.038Z,5.2
2023-05-04T05:35:40.037Z,5.2
2023-05-04T05:36:40.029Z,5.2
2023-05-04T05:37:40.032Z,5.2
2023-05-04T05:38:40.861Z,5.2
2023-05-04T05:39:44.010Z,5.2
2023-05-04T05:40:46.858Z,5.2
2023-05-04T05:41:40.050Z,5.3
2023-05-04T05:42:40.037Z,5.3
2023-05-04T05:43:40.036Z,5.3
2023-05-04T05:44:40.038Z,5.3
2023-05-04T05:45:40.043Z,5.4
2023-05-04T05:46:40.131Z,5.4
2023-05-04T05:47:40.039Z,5.4
2023-05-04T05:48:40.029Z,5.4
2023-05-04T05:49:40.037Z,5.5
2023-05-04T05:50:40.038Z,5.5
2023-05-04T05:51:40.038Z,5.5
2023-05-04T05:52:40.034Z,5.6
2023-05-04T05:53:40.030Z,5.6
2023-05-04T05:54:40.036Z,5.6
2023-05-04T05:55:40.036Z,5.7
2023-05-04T05:56:40.050Z,5.7
2023-05-04T05:57:40.043Z,5.7
2023-05-04T05:58:40.032Z,5.7
2023-05-04T05:59:40.959Z,5.7
2023-05-04T06:00:42.373Z,5.8
2023-05-04T06:01:45.328Z,5.8
2023-05-04T06:02:40.102Z,5.9
2023-05-04T06:03:40.128Z,6
2023-05-04T06:04:40.096Z,6.1
2023-05-04T06:05:40.034Z,6.1
2023-05-04T06:06:40.040Z,6.1
2023-05-04T06:07:40.094Z,6.2
2023-05-04T06:08:40.027Z,6.3
2023-05-04T06:09:40.030Z,6.4
2023-05-04T06:10:40.029Z,6.5
2023-05-04T06:11:40.037Z,6.6
2023-05-04T06:12:40.132Z,6.6
2023-05-04T06:13:40.038Z,6.7
2023-05-04T06:14:40.040Z,6.8
2023-05-04T06:15:40.040Z,6.9
2023-05-04T06:16:40.177Z,7
2023-05-04T06:17:40.079Z,7.1
2023-05-04T06:18:40.034Z,7.2
2023-05-04T06:19:40.040Z,7.2
2023-05-04T06:20:40.606Z,7.2
2023-05-04T06:21:44.196Z,7.3
2023-05-04T06:22:47.140Z,7.4
2023-05-04T06:23:40.045Z,7.5
2023-05-04T06:24:40.157Z,7.5
2023-05-04T06:25:40.036Z,7.6
2023-05-04T06:26:40.075Z,7.7
2023-05-04T06:27:40.040Z,7.7
2023-05-04T06:28:40.054Z,7.8
2023-05-04T06:29:40.026Z,7.8
2023-05-04T06:30:40.032Z,7.9
2023-05-04T06:31:40.066Z,8
2023-05-04T06:32:40.093Z,8.1
2023-05-04T06:33:40.058Z,8.1
2023-05-04T06:34:40.073Z,8.2
2023-05-04T06:35:40.043Z,8.3
2023-05-04T06:36:40.042Z,8.4
2023-05-04T06:37:40.029Z,8.4
2023-05-04T06:38:40.041Z,8.5
2023-05-04T06:39:40.028Z,8.6
2023-05-04T06:40:40.037Z,8.7
2023-05-04T06:41:41.165Z,8.7
2023-05-04T06:42:44.331Z,8.8
2023-05-04T06:43:47.263Z,8.9
2023-05-04T06:44:40.028Z,9
2023-05-04T06:45:40.048Z,9.1
2023-05-04T06:46:40.032Z,9.2
2023-05-04T06:47:40.057Z,9.3
2023-05-04T06:48:40.033Z,9.4
2023-05-04T06:49:40.035Z,9.5
2023-05-04T06:50:40.055Z,9.6
2023-05-04T06:51:40.040Z,9.7
2023-05-04T06:52:40.051Z,9.8
2023-05-04T06:53:40.048Z,9.8
2023-05-04T06:54:40.166Z,9.9
2023-05-04T06:55:40.042Z,10
2023-05-04T06:56:40.050Z,10.1
2023-05-04T06:57:40.040Z,10.3
2023-05-04T06:58:40.044Z,10.4
2023-05-04T06:59:40.035Z,10.5
2023-05-04T07:00:40.025Z,10.6
2023-05-04T07:01:40.192Z,10.6
2023-05-04T07:02:41.356Z,10.6
2023-05-04T07:03:44.574Z,10.7
2023-05-04T07:04:47.536Z,10.8
2023-05-04T07:05:40.034Z,10.9
2023-05-04T07:06:40.048Z,11
2023-05-04T07:07:40.026Z,11.1
2023-05-04T07:08:40.028Z,11.2
2023-05-04T07:09:40.030Z,11.3
2023-05-04T07:10:40.029Z,11.4
2023-05-04T07:11:40.046Z,11.5
2023-05-04T07:12:40.107Z,11.5
2023-05-04T07:13:40.033Z,11.6
2023-05-04T07:14:40.031Z,11.7
2023-05-04T07:15:40.035Z,11.7
2023-05-04T07:16:40.127Z,11.8
2023-05-04T07:17:40.051Z,11.9
2023-05-04T07:18:40.026Z,12
2023-05-04T07:19:40.037Z,12.1
2023-05-04T07:20:40.021Z,12.2
2023-05-04T07:21:40.033Z,12.2
2023-05-04T07:22:40.026Z,12.3
2023-05-04T07:23:41.458Z,12.3
2023-05-04T07:24:44.518Z,12.4
2023-05-04T07:25:47.542Z,12.5
2023-05-04T07:26:40.033Z,12.6
2023-05-04T07:27:40.051Z,12.7
2023-05-04T07:28:40.033Z,12.7
2023-05-04T07:29:40.027Z,12.8
2023-05-04T07:30:40.044Z,12.9
2023-05-04T07:31:40.031Z,12.9
2023-05-04T07:32:40.058Z,12.9
2023-05-04T07:33:40.033Z,13
2023-05-04T07:34:45.420Z,13
2023-05-04T07:35:40.031Z,13.1
2023-05-04T07:36:42.012Z,13.1
2023-05-04T07:37:40.078Z,13.1
2023-05-04T07:38:40.038Z,13.1
2023-05-04T07:39:40.023Z,13.1
2023-05-04T07:40:40.027Z,13.1
2023-05-04T07:41:40.025Z,13.1
2023-05-04T07:42:40.044Z,13.1
2023-05-04T07:43:40.026Z,13.2
2023-05-04T07:44:41.578Z,13.2
2023-05-04T07:45:44.690Z,13.2
2023-05-04T07:46:47.668Z,13.2
2023-05-04T07:47:40.068Z,13.3
2023-05-04T07:48:40.037Z,13.3
2023-05-04T07:49:40.023Z,13.4
2023-05-04T07:50:40.030Z,13.4
2023-05-04T07:51:40.031Z,13.4
2023-05-04T07:52:40.046Z,13.5
2023-05-04T07:53:40.022Z,13.5
2023-05-04T07:54:40.036Z,13.6
2023-05-04T07:55:40.041Z,13.6
2023-05-04T07:56:40.021Z,13.6
2023-05-04T07:57:40.020Z,13.6
2023-05-04T07:58:40.486Z,13.6
2023-05-04T07:59:40.028Z,13.7
2023-05-04T08:00:40.028Z,13.7
2023-05-04T08:01:40.848Z,13.7
2023-05-04T08:02:40.093Z,13.8
2023-05-04T08:03:40.025Z,13.9
2023-05-04T08:04:40.025Z,13.9
2023-05-04T08:05:41.626Z,13.9
2023-05-04T08:06:44.686Z,14
2023-05-04T08:07:47.749Z,14
2023-05-04T08:09:40.025Z,14.1
2023-05-04T08:10:40.020Z,14.1
2023-05-04T08:11:40.028Z,14.1
2023-05-04T08:12:40.066Z,14.1
2023-05-04T08:13:40.030Z,14.2
2023-05-04T08:14:40.038Z,14.2
2023-05-04T08:15:40.071Z,14.2
2023-05-04T08:16:40.028Z,14.2
2023-05-04T08:17:40.044Z,14.2
2023-05-04T08:18:40.028Z,14.3
2023-05-04T08:19:40.029Z,14.3
2023-05-04T08:20:40.054Z,14.3
2023-05-04T08:21:40.033Z,14.4
2023-05-04T08:22:40.034Z,14.4
2023-05-04T08:23:40.026Z,14.5
2023-05-04T08:24:40.027Z,14.5
2023-05-04T08:25:40.031Z,14.6
2023-05-04T08:26:42.534Z,14.6
2023-05-04T08:27:44.764Z,14.6
2023-05-04T08:28:47.847Z,14.7
2023-05-04T08:29:40.030Z,14.7
2023-05-04T08:30:40.026Z,14.8
2023-05-04T08:31:40.067Z,14.9
2023-05-04T08:32:40.070Z,15
2023-05-04T08:33:40.042Z,15
2023-05-04T08:34:40.040Z,15
2023-05-04T08:35:40.029Z,15.1
2023-05-04T08:36:40.076Z,15.2
2023-05-04T08:37:40.034Z,15.2
2023-05-04T08:38:40.041Z,15.2
2023-05-04T08:39:41.892Z,15.3
2023-05-04T08:40:40.036Z,15.3
2023-05-04T08:41:40.039Z,15.4
2023-05-04T08:42:40.034Z,15.5
2023-05-04T08:43:40.034Z,15.6
2023-05-04T08:44:41.138Z,15.6
2023-05-04T08:45:40.044Z,15.6
2023-05-04T08:46:40.034Z,15.7
2023-05-04T08:47:41.861Z,15.7
2023-05-04T08:48:44.975Z,15.7
2023-05-04T08:49:40.025Z,15.8
2023-05-04T08:50:40.038Z,15.8
2023-05-04T08:51:40.041Z,15.8
2023-05-04T08:52:40.034Z,15.9
2023-05-04T08:53:40.035Z,15.9
2023-05-04T08:54:40.066Z,15.9
2023-05-04T08:55:40.150Z,15.9
2023-05-04T08:56:40.042Z,16
2023-05-04T08:57:40.029Z,16
2023-05-04T08:58:40.037Z,16
2023-05-04T08:59:40.044Z,16.1
2023-05-04T09:00:40.074Z,16.1
2023-05-04T09:01:40.068Z,16.2
2023-05-04T09:02:40.061Z,16.2
2023-05-04T09:03:40.097Z,16.2
2023-05-04T09:04:40.033Z,16.3
2023-05-04T09:05:40.121Z,16.4
2023-05-04T09:06:40.030Z,16.5
2023-05-04T09:07:40.038Z,16.5
2023-05-04T09:08:40.115Z,16.6
2023-05-04T09:09:42.039Z,16.6
2023-05-04T09:10:45.036Z,16.7
2023-05-04T09:11:40.061Z,16.7
2023-05-04T09:12:40.075Z,16.7
2023-05-04T09:13:40.029Z,16.8
2023-05-04T09:14:40.030Z,16.8
2023-05-04T09:15:40.040Z,16.8
2023-05-04T09:16:40.071Z,16.9
2023-05-04T09:17:47.579Z,16.9
2023-05-04T09:18:40.037Z,16.9
2023-05-04T09:19:40.035Z,17
2023-05-04T09:20:40.030Z,17
2023-05-04T09:21:40.040Z,17
2023-05-04T09:22:40.047Z,17
2023-05-04T09:23:40.070Z,17.2
2023-05-04T09:24:40.032Z,17.2
2023-05-04T09:25:40.040Z,17.2
2023-05-04T09:26:40.038Z,17.2
2023-05-04T09:27:40.040Z,17.2
2023-05-04T09:28:40.042Z,17.3
2023-05-04T09:29:40.030Z,17.3
2023-05-04T09:30:42.327Z,17.3
2023-05-04T09:31:45.053Z,17.4
2023-05-04T09:32:40.048Z,17.4
2023-05-04T09:33:40.039Z,17.4
2023-05-04T09:34:40.044Z,17.5
2023-05-04T09:35:40.057Z,17.5
2023-05-04T09:36:40.035Z,17.5
2023-05-04T09:37:40.107Z,17.6
2023-05-04T09:38:40.032Z,17.6
2023-05-04T09:39:40.033Z,17.6
2023-05-04T09:40:40.049Z,17.7
2023-05-04T09:41:40.037Z,17.7
2023-05-04T09:42:40.070Z,17.8
2023-05-04T09:43:40.036Z,17.9
2023-05-04T09:44:40.046Z,17.9
2023-05-04T09:45:40.104Z,18
2023-05-04T09:46:40.073Z,18
2023-05-04T09:47:40.077Z,18
2023-05-04T09:48:40.076Z,18.1
2023-05-04T09:49:40.032Z,18.1
2023-05-04T09:50:40.062Z,18.1
2023-05-04T09:51:41.785Z,18.1
2023-05-04T09:52:45.126Z,18.2
2023-05-04T09:53:40.033Z,18.2
2023-05-04T09:54:40.044Z,18.3
2023-05-04T09:55:40.067Z,18.3
2023-05-04T09:56:40.053Z,18.4
2023-05-04T09:57:40.078Z,18.4
2023-05-04T09:58:40.076Z,18.4
2023-05-04T09:59:40.065Z,18.5
2023-05-04T10:00:40.032Z,18.5
2023-05-04T10:01:40.216Z,18.5
2023-05-04T10:02:40.071Z,18.5
2023-05-04T10:03:40.035Z,18.5
2023-05-04T10:04:40.115Z,18.5
2023-05-04T10:05:40.117Z,18.5
2023-05-04T10:06:40.035Z,18.7
2023-05-04T10:07:41.519Z,18.7
2023-05-04T10:08:40.030Z,18.7
2023-05-04T10:09:40.155Z,18.7
2023-05-04T10:10:40.039Z,18.8
2023-05-04T10:11:40.026Z,18.8
2023-05-04T10:12:42.483Z,18.8
2023-05-04T10:13:45.406Z,18.8
2023-05-04T10:14:40.285Z,18.8
2023-05-04T10:15:40.051Z,18.9
2023-05-04T10:16:40.056Z,18.9
2023-05-04T10:17:40.039Z,18.9
2023-05-04T10:18:40.041Z,18.9
2023-05-04T10:19:40.228Z,19
2023-05-04T10:20:40.049Z,19
2023-05-04T10:21:40.021Z,19
2023-05-04T10:22:40.043Z,19.1
2023-05-04T10:23:40.029Z,19.1
2023-05-04T10:24:40.282Z,19.2
2023-05-04T10:25:40.032Z,19.2
2023-05-04T10:26:40.026Z,19.3
2023-05-04T10:27:40.030Z,19.3
2023-05-04T10:28:40.047Z,19.3
2023-05-04T10:29:40.459Z,19.4
2023-05-04T10:30:40.034Z,19.5
2023-05-04T10:31:40.083Z,19.5
2023-05-04T10:32:40.126Z,19.5
2023-05-04T10:33:42.515Z,19.5
2023-05-04T10:34:45.392Z,19.5
2023-05-04T10:35:40.033Z,19.7
2023-05-04T10:36:40.058Z,19.7
2023-05-04T10:37:40.026Z,19.8
2023-05-04T10:38:40.032Z,19.8
2023-05-04T10:39:40.365Z,19.8
2023-05-04T10:41:40.027Z,19.8
2023-05-04T10:42:40.041Z,19.8
2023-05-04T10:43:40.046Z,19.8
2023-05-04T10:44:40.425Z,19.9
2023-05-04T10:45:40.086Z,19.9
2023-05-04T10:46:40.024Z,19.9
2023-05-04T10:47:40.082Z,19.9
2023-05-04T10:48:40.027Z,19.9
2023-05-04T10:49:40.535Z,20
2023-05-04T10:50:40.042Z,20
2023-05-04T10:51:48.878Z,20.1
2023-05-04T10:52:40.025Z,20.1
2023-05-04T10:53:40.028Z,20.2
2023-05-04T10:54:42.588Z,20.2
2023-05-04T10:55:45.429Z,20.2
2023-05-04T10:56:40.032Z,20.2
2023-05-04T10:57:40.073Z,20.3
2023-05-04T10:58:40.047Z,20.3
2023-05-04T10:59:40.029Z,20.5
2023-05-04T11:00:40.024Z,20.5
2023-05-04T11:01:40.046Z,20.6
2023-05-04T11:02:40.094Z,20.6
2023-05-04T11:03:40.105Z,20.6
2023-05-04T11:04:40.031Z,20.6
2023-05-04T11:05:40.036Z,20.7
2023-05-04T11:06:40.029Z,20.7
2023-05-04T11:07:40.104Z,20.8
2023-05-04T11:08:40.031Z,20.8
2023-05-04T11:09:40.032Z,20.8
2023-05-04T11:10:40.051Z,20.8
2023-05-04T11:11:40.138Z,20.8
2023-05-04T11:12:40.037Z,20.8
2023-05-04T11:13:40.027Z,20.8
2023-05-04T11:14:40.028Z,20.9
2023-05-04T11:15:42.679Z,20.9
2023-05-04T11:16:45.592Z,20.8
2023-05-04T11:17:40.030Z,20.8
2023-05-04T11:18:40.124Z,20.8
2023-05-04T11:19:40.032Z,20.9
2023-05-04T11:20:40.060Z,20.9
2023-05-04T11:21:40.044Z,20.9
2023-05-04T11:22:40.035Z,20.8
2023-05-04T11:23:40.040Z,20.9
2023-05-04T11:24:40.028Z,20.9
2023-05-04T11:25:40.089Z,20.9
2023-05-04T11:26:40.031Z,20.9
2023-05-04T11:27:40.026Z,20.9
2023-05-04T11:28:40.031Z,20.9
2023-05-04T11:29:40.040Z,21
2023-05-04T11:30:40.040Z,21
2023-05-04T11:31:40.057Z,21
2023-05-04T11:32:40.269Z,21
2023-05-04T11:33:40.026Z,21.2
2023-05-04T11:34:40.025Z,21.2
2023-05-04T11:35:40.043Z,21
2023-05-04T11:36:42.745Z,21
2023-05-04T11:37:45.662Z,21.2
2023-05-04T11:38:40.036Z,21.2
2023-05-04T11:39:40.030Z,21.2
2023-05-04T11:40:40.029Z,21.2
2023-05-04T11:41:40.052Z,21.2
2023-05-04T11:42:40.037Z,21.2
2023-05-04T11:43:40.042Z,21.2
2023-05-04T11:44:40.025Z,21.3
2023-05-04T11:45:40.031Z,21.3
2023-05-04T11:46:40.095Z,21.2
2023-05-04T11:48:40.048Z,21.2
2023-05-04T11:49:40.047Z,21.2
2023-05-04T11:50:40.057Z,21.2
2023-05-04T11:51:40.079Z,21.2
2023-05-04T11:52:40.028Z,21.2
2023-05-04T11:53:40.045Z,21.2
2023-05-04T11:54:40.032Z,21
2023-05-04T11:55:40.042Z,21
2023-05-04T11:56:40.061Z,21
2023-05-04T11:57:42.907Z,21
2023-05-04T11:58:45.699Z,21
2023-05-04T11:59:40.032Z,21
2023-05-04T12:00:40.354Z,21
2023-05-04T12:01:40.051Z,21
2023-05-04T12:02:40.092Z,21.2
2023-05-04T12:03:51.819Z,21.2
2023-05-04T12:04:40.038Z,21.2
2023-05-04T12:05:40.046Z,21.2
2023-05-04T12:06:40.056Z,21.2
2023-05-04T12:07:40.039Z,21
2023-05-04T12:08:40.030Z,21
2023-05-04T12:09:40.040Z,21
2023-05-04T12:10:40.021Z,21
2023-05-04T12:11:40.058Z,20.9
2023-05-04T12:12:40.071Z,21
2023-05-04T12:13:40.030Z,20.9
2023-05-04T12:14:40.025Z,20.9
2023-05-04T12:15:40.026Z,20.9
2023-05-04T12:16:40.212Z,20.9
2023-05-04T12:17:40.162Z,20.9
2023-05-04T12:18:40.635Z,20.9
2023-05-04T12:19:43.523Z,20.9
2023-05-04T12:20:46.399Z,20.9
2023-05-04T12:21:40.048Z,20.9
2023-05-04T12:22:40.059Z,20.9
2023-05-04T12:23:40.028Z,20.9
2023-05-04T12:24:40.036Z,20.9
2023-05-04T12:25:47.610Z,20.9
2023-05-04T12:26:40.031Z,20.9
2023-05-04T12:27:40.048Z,20.9
2023-05-04T12:28:40.030Z,20.9
2023-05-04T12:29:40.032Z,21
2023-05-04T12:30:40.027Z,21
2023-05-04T12:31:40.107Z,21
2023-05-04T12:32:40.260Z,21
2023-05-04T12:33:40.038Z,21
2023-05-04T12:34:40.034Z,21.2
2023-05-04T12:35:40.037Z,21.2
2023-05-04T12:36:40.026Z,21.2
2023-05-04T12:37:40.043Z,21.2
2023-05-04T12:38:40.022Z,21.2
2023-05-04T12:39:40.704Z,21.2
2023-05-04T12:40:43.045Z,21.3
2023-05-04T12:41:46.492Z,21.3
2023-05-04T12:42:40.024Z,21.3
2023-05-04T12:43:40.039Z,21.3
2023-05-04T12:44:40.024Z,21.3
2023-05-04T12:45:40.057Z,21.3
2023-05-04T12:46:40.046Z,21.3
2023-05-04T12:47:40.070Z,21.3
2023-05-04T12:48:40.035Z,21.3
2023-05-04T12:49:40.019Z,21.3
2023-05-04T12:50:40.027Z,21.3
2023-05-04T12:51:40.026Z,21.3
2023-05-04T12:52:40.066Z,21.3
2023-05-04T12:53:40.038Z,21.4
2023-05-04T12:54:40.037Z,21.3
2023-05-04T12:55:40.047Z,21.4
2023-05-04T12:56:40.038Z,21.4
2023-05-04T12:57:40.037Z,21.4
2023-05-04T12:58:40.045Z,21.3
2023-05-04T12:59:40.035Z,21.3
2023-05-04T13:00:40.288Z,21.4
2023-05-04T13:01:43.253Z,21.4
2023-05-04T13:02:46.719Z,21.4
2023-05-04T13:03:40.188Z,21.4
2023-05-04T13:04:40.035Z,21.4
2023-05-04T13:05:40.034Z,21.4
2023-05-04T13:06:40.055Z,21.4
2023-05-04T13:07:40.084Z,21.5
2023-05-04T13:08:40.040Z,21.5
2023-05-04T13:09:40.040Z,21.5
2023-05-04T13:10:40.034Z,21.5
2023-05-04T13:11:40.027Z,21.5
2023-05-04T13:12:40.040Z,21.5
2023-05-04T13:13:40.043Z,21.5
2023-05-04T13:14:40.195Z,21.5
2023-05-04T13:15:40.065Z,21.5
2023-05-04T13:16:40.053Z,21.6
2023-05-04T13:17:40.147Z,21.5
2023-05-04T13:18:40.039Z,21.5
2023-05-04T13:19:40.035Z,21.6
2023-05-04T13:20:40.032Z,21.6
2023-05-04T13:21:40.875Z,21.6
2023-05-04T13:22:43.797Z,21.6
2023-05-04T13:23:46.178Z,21.6
2023-05-04T13:24:40.036Z,21.6
2023-05-04T13:25:40.043Z,21.6
2023-05-04T13:26:40.038Z,21.6
2023-05-04T13:27:40.041Z,21.6
2023-05-04T13:28:40.037Z,21.8
2023-05-04T13:29:40.037Z,21.8
2023-05-04T13:30:40.031Z,21.8
2023-05-04T13:31:44.755Z,21.8
2023-05-04T13:32:40.072Z,21.8
2023-05-04T13:33:40.048Z,21.8
2023-05-04T13:34:40.041Z,21.8
2023-05-04T13:36:40.057Z,21.9
2023-05-04T13:37:40.037Z,21.8
2023-05-04T13:38:40.056Z,21.9
2023-05-04T13:39:40.038Z,21.9
2023-05-04T13:40:40.059Z,21.9
2023-05-04T13:41:40.037Z,21.9
2023-05-04T13:42:41.075Z,21.9